Kashima Maru No.7 — JJGM — position and weather

sailwx.info

Track history (hours):
 
Tides and Currents Weather Stations Pressure Air Temp Water Temp Dewpoint Dewpoint Depression Visibility Wind Speed Wind Dir Waves Ship Positions

Kashima Maru No.7

Last reported at 2018-Jun-09 11:39 UTC. Time now 2018-Jun-24 22:26 UTC.
Position N 34°23' E 134°21'.
Warning: this ship's position is 15 days out of date.

Length 72 m; draft 3.8 m.

Type: Tanker. MMSI: 432480000.

Date/timePositionNaut miles runAvg speedWind from/ knotsBaromVisibWave heightAir tempDewpointWater temp
2018-Jun-09 11:39N 34°23' E 134°21'212.8
2018-Jun-09 11:28N 34°22' E 134°23'612.8
2018-Jun-09 11:00N 34°19' E 134°30'1011.6
2018-Jun-09 10:07N 34°13' E 134°40'812.5
2018-Jun-09 09:27N 34°07' E 134°46'812.9
2018-Jun-09 08:49N 34°00' E 134°52'412.9
2018-Jun-09 08:30N 33°57' E 134°55'712.9
2018-Jun-09 08:00N 33°52' E 135°00'24610.5
2018-Jun-08 08:29N 35°09' E 139°44'611.7
2018-Jun-08 08:00N 35°14' E 139°46'612.1
2018-Jun-08 07:29N 35°20' E 139°43'511.4
2018-Jun-08 07:00N 35°25' E 139°43'611.9
2018-Jun-08 06:30N 35°28' E 139°49'5 0.3
2018-Jun-07 15:08N 35°29' E 139°55'0 0.0
2018-Jun-07 14:38N 35°29' E 139°55'0 0.0
2018-Jun-07 13:56N 35°29' E 139°55'0 0.0
2018-Jun-07 13:20N 35°29' E 139°55'3 4.0
2018-Jun-07 12:36N 35°28' E 139°52'112.7
2018-Jun-07 12:30N 35°27' E 139°50'612.5
2018-Jun-07 12:00N 35°23' E 139°46'611.3
2018-Jun-07 11:28N 35°16' E 139°46'24910.8
2018-Jun-06 12:23N 33°50' E 135°02'511.8
2018-Jun-06 11:56N 33°55' E 134°59'511.6
2018-Jun-06 11:30N 33°60' E 134°59'611.8
2018-Jun-06 11:00N 34°05' E 134°59'612.7
2018-Jun-06 10:30N 34°12' E 134°59'714.2
2018-Jun-06 10:00N 34°19' E 134°59'612.6
2018-Jun-06 09:30N 34°24' E 135°04'712.8
2018-Jun-06 09:00N 34°28' E 135°10'812.9
2018-Jun-06 08:23N 34°32' E 135°19'512.4
2018-Jun-06 07:58N 34°33' E 135°24'0 0.0
2018-Jun-06 03:30N 34°33' E 135°24'4 7.6
2018-Jun-06 02:59N 34°32' E 135°20'0 0.4
2018-Jun-06 01:56N 34°32' E 135°20'0 0.0
2018-Jun-06 01:23N 34°32' E 135°20'0 0.0
2018-Jun-06 00:42N 34°32' E 135°20'0 0.0
2018-Jun-06 00:25N 34°32' E 135°20'0 0.0
2018-Jun-06 00:00N 34°32' E 135°20'0 0.0
2018-Jun-05 23:29N 34°32' E 135°20'0 0.0
2018-Jun-05 23:00N 34°32' E 135°20'0 0.0
2018-Jun-05 22:30N 34°32' E 135°20'0 0.0
2018-Jun-05 22:00N 34°32' E 135°20'0 0.0
2018-Jun-05 21:21N 34°32' E 135°20'0 0.0
2018-Jun-05 21:00N 34°32' E 135°20'0 0.0
2018-Jun-05 20:30N 34°32' E 135°20'0 0.0
2018-Jun-05 19:59N 34°32' E 135°20'0 0.0
2018-Jun-05 19:30N 34°32' E 135°20'0 0.0
2018-Jun-05 19:00N 34°32' E 135°20'0 0.0
2018-Jun-05 18:30N 34°32' E 135°20'0 0.0
2018-Jun-05 18:00N 34°32' E 135°20'0 0.0
2018-Jun-05 17:30N 34°32' E 135°20'0 0.0
2018-Jun-05 17:00N 34°32' E 135°20'0 0.0
2018-Jun-05 16:30N 34°32' E 135°20'0 0.0
2018-Jun-05 16:00N 34°32' E 135°20'0 0.0
2018-Jun-05 15:26N 34°32' E 135°20'0 0.1
2018-Jun-05 14:58N 34°32' E 135°20'0 0.0
2018-Jun-05 14:30N 34°32' E 135°20'0 0.1
2018-Jun-05 14:00N 34°32' E 135°20'0 0.1
2018-Jun-05 13:30N 34°32' E 135°20'0 0.0
2018-Jun-05 13:00N 34°32' E 135°20'0 0.1
2018-Jun-05 12:30N 34°32' E 135°20'0 0.1
2018-Jun-05 12:00N 34°32' E 135°20'1 1.5
2018-Jun-05 11:30N 34°32' E 135°19'613.1
2018-Jun-05 11:00N 34°34' E 135°11'714.2
2018-Jun-05 10:30N 34°36' E 135°03'913.9
2018-Jun-05 09:52N 34°34' E 134°52'514.1
2018-Jun-05 09:29N 34°32' E 134°46'713.3
2018-Jun-05 08:58N 34°29' E 134°39'613.2
2018-Jun-05 08:30N 34°27' E 134°32'  
2018-Jun-01 16:34N 35°04' E 139°34'112.9
2018-Jun-01 16:28N 35°04' E 139°35'612.9
2018-Jun-01 16:00N 35°07' E 139°42'712.8
2018-Jun-01 15:30N 35°12' E 139°46'612.7
2018-Jun-01 15:00N 35°18' E 139°44'611.9
2018-Jun-01 14:30N 35°24' E 139°43'612.9
2018-Jun-01 14:00N 35°28' E 139°49'  
Track history (hours):
 
Tides and Currents Weather Stations Pressure Air Temp Water Temp Dewpoint Dewpoint Depression Visibility Wind Speed Wind Dir Waves Ship Positions

Kashima Maru No.7

Last reported at 2018-Jun-09 11:39 UTC. Time now 2018-Jun-24 22:26 UTC.
Position N 34°23' E 134°21'.
Warning: this ship's position is 15 days out of date.

Length 72 m; draft 3.8 m.

Type: Tanker. MMSI: 432480000.

Date/timePositionNaut miles runAvg speedWind from/ knotsBaromVisibWave heightAir tempDewpointWater temp
2018-Jun-09 11:39N 34°23' E 134°21'212.8
2018-Jun-09 11:28N 34°22' E 134°23'612.8
2018-Jun-09 11:00N 34°19' E 134°30'1011.6
2018-Jun-09 10:07N 34°13' E 134°40'812.5
2018-Jun-09 09:27N 34°07' E 134°46'812.9
2018-Jun-09 08:49N 34°00' E 134°52'412.9
2018-Jun-09 08:30N 33°57' E 134°55'712.9
2018-Jun-09 08:00N 33°52' E 135°00'24610.5
2018-Jun-08 08:29N 35°09' E 139°44'611.7
2018-Jun-08 08:00N 35°14' E 139°46'612.1
2018-Jun-08 07:29N 35°20' E 139°43'511.4
2018-Jun-08 07:00N 35°25' E 139°43'611.9
2018-Jun-08 06:30N 35°28' E 139°49'5 0.3
2018-Jun-07 15:08N 35°29' E 139°55'0 0.0
2018-Jun-07 14:38N 35°29' E 139°55'0 0.0
2018-Jun-07 13:56N 35°29' E 139°55'0 0.0
2018-Jun-07 13:20N 35°29' E 139°55'3 4.0
2018-Jun-07 12:36N 35°28' E 139°52'112.7
2018-Jun-07 12:30N 35°27' E 139°50'612.5
2018-Jun-07 12:00N 35°23' E 139°46'611.3
2018-Jun-07 11:28N 35°16' E 139°46'24910.8
2018-Jun-06 12:23N 33°50' E 135°02'511.8
2018-Jun-06 11:56N 33°55' E 134°59'511.6
2018-Jun-06 11:30N 33°60' E 134°59'611.8
2018-Jun-06 11:00N 34°05' E 134°59'612.7
2018-Jun-06 10:30N 34°12' E 134°59'714.2
2018-Jun-06 10:00N 34°19' E 134°59'612.6
2018-Jun-06 09:30N 34°24' E 135°04'712.8
2018-Jun-06 09:00N 34°28' E 135°10'812.9
2018-Jun-06 08:23N 34°32' E 135°19'512.4
2018-Jun-06 07:58N 34°33' E 135°24'0 0.0
2018-Jun-06 03:30N 34°33' E 135°24'4 7.6
2018-Jun-06 02:59N 34°32' E 135°20'0 0.4
2018-Jun-06 01:56N 34°32' E 135°20'0 0.0
2018-Jun-06 01:23N 34°32' E 135°20'0 0.0
2018-Jun-06 00:42N 34°32' E 135°20'0 0.0
2018-Jun-06 00:25N 34°32' E 135°20'0 0.0
2018-Jun-06 00:00N 34°32' E 135°20'0 0.0
2018-Jun-05 23:29N 34°32' E 135°20'0 0.0
2018-Jun-05 23:00N 34°32' E 135°20'0 0.0
2018-Jun-05 22:30N 34°32' E 135°20'0 0.0
2018-Jun-05 22:00N 34°32' E 135°20'0 0.0
2018-Jun-05 21:21N 34°32' E 135°20'0 0.0
2018-Jun-05 21:00N 34°32' E 135°20'0 0.0
2018-Jun-05 20:30N 34°32' E 135°20'0 0.0
2018-Jun-05 19:59N 34°32' E 135°20'0 0.0
2018-Jun-05 19:30N 34°32' E 135°20'0 0.0
2018-Jun-05 19:00N 34°32' E 135°20'0 0.0
2018-Jun-05 18:30N 34°32' E 135°20'0 0.0
2018-Jun-05 18:00N 34°32' E 135°20'0 0.0
2018-Jun-05 17:30N 34°32' E 135°20'0 0.0
2018-Jun-05 17:00N 34°32' E 135°20'0 0.0
2018-Jun-05 16:30N 34°32' E 135°20'0 0.0
2018-Jun-05 16:00N 34°32' E 135°20'0 0.0
2018-Jun-05 15:26N 34°32' E 135°20'0 0.1
2018-Jun-05 14:58N 34°32' E 135°20'0 0.0
2018-Jun-05 14:30N 34°32' E 135°20'0 0.1
2018-Jun-05 14:00N 34°32' E 135°20'0 0.1
2018-Jun-05 13:30N 34°32' E 135°20'0 0.0
2018-Jun-05 13:00N 34°32' E 135°20'0 0.1
2018-Jun-05 12:30N 34°32' E 135°20'0 0.1
2018-Jun-05 12:00N 34°32' E 135°20'1 1.5
2018-Jun-05 11:30N 34°32' E 135°19'613.1
2018-Jun-05 11:00N 34°34' E 135°11'714.2
2018-Jun-05 10:30N 34°36' E 135°03'913.9
2018-Jun-05 09:52N 34°34' E 134°52'514.1
2018-Jun-05 09:29N 34°32' E 134°46'713.3
2018-Jun-05 08:58N 34°29' E 134°39'613.2
2018-Jun-05 08:30N 34°27' E 134°32'  
2018-Jun-01 16:34N 35°04' E 139°34'112.9
2018-Jun-01 16:28N 35°04' E 139°35'612.9
2018-Jun-01 16:00N 35°07' E 139°42'712.8
2018-Jun-01 15:30N 35°12' E 139°46'612.7
2018-Jun-01 15:00N 35°18' E 139°44'611.9
2018-Jun-01 14:30N 35°24' E 139°43'612.9
2018-Jun-01 14:00N 35°28' E 139°49'  

Dump ship's entire track history